sensor_id;sensor_type;location;lat;lon;timestamp;pressure;altitude;pressure_sealevel;temperature;humidity
58622;BME280;44389;51.578;5.456;2023-04-19T00:02:10;102542.88;;;8.44;94.50
58622;BME280;44389;51.578;5.456;2023-04-19T00:04:35;102544.09;;;8.49;94.25
58622;BME280;44389;51.578;5.456;2023-04-19T00:07:02;102542.63;;;8.53;93.99
58622;BME280;44389;51.578;5.456;2023-04-19T00:09:27;102545.41;;;8.56;93.89
58622;BME280;44389;51.578;5.456;2023-04-19T00:11:52;102540.28;;;8.56;94.11
58622;BME280;44389;51.578;5.456;2023-04-19T00:14:18;102543.91;;;8.60;93.91
58622;BME280;44389;51.578;5.456;2023-04-19T00:16:43;102542.34;;;8.62;93.88
58622;BME280;44389;51.578;5.456;2023-04-19T00:19:08;102542.66;;;8.66;93.73
58622;BME280;44389;51.578;5.456;2023-04-19T00:21:35;102542.84;;;8.69;93.03
58622;BME280;44389;51.578;5.456;2023-04-19T00:24:01;102538.00;;;8.74;93.23
58622;BME280;44389;51.578;5.456;2023-04-19T00:26:27;102546.59;;;8.75;93.08
58622;BME280;44389;51.578;5.456;2023-04-19T00:28:52;102536.41;;;8.76;93.05
58622;BME280;44389;51.578;5.456;2023-04-19T00:31:17;102533.84;;;8.76;93.03
58622;BME280;44389;51.578;5.456;2023-04-19T00:33:43;102533.03;;;8.77;93.34
58622;BME280;44389;51.578;5.456;2023-04-19T00:36:08;102533.13;;;8.79;93.24
58622;BME280;44389;51.578;5.456;2023-04-19T00:38:34;102529.09;;;8.82;93.06
58622;BME280;44389;51.578;5.456;2023-04-19T00:40:59;102525.59;;;8.82;93.03
58622;BME280;44389;51.578;5.456;2023-04-19T00:43:25;102528.31;;;8.83;93.12
58622;BME280;44389;51.578;5.456;2023-04-19T00:45:50;102525.72;;;8.83;92.97
58622;BME280;44389;51.578;5.456;2023-04-19T00:48:15;102529.97;;;8.83;93.11
58622;BME280;44389;51.578;5.456;2023-04-19T00:50:42;102527.41;;;8.83;93.50
58622;BME280;44389;51.578;5.456;2023-04-19T00:53:09;102528.41;;;8.85;93.09
58622;BME280;44389;51.578;5.456;2023-04-19T00:55:34;102529.19;;;8.84;93.45
58622;BME280;44389;51.578;5.456;2023-04-19T00:58:00;102525.72;;;8.83;93.66
58622;BME280;44389;51.578;5.456;2023-04-19T01:00:26;102530.88;;;8.83;93.84
58622;BME280;44389;51.578;5.456;2023-04-19T01:02:51;102524.72;;;8.81;93.96
58622;BME280;44389;51.578;5.456;2023-04-19T01:05:18;102524.91;;;8.84;94.14
58622;BME280;44389;51.578;5.456;2023-04-19T01:07:43;102519.59;;;8.81;94.17
58622;BME280;44389;51.578;5.456;2023-04-19T01:10:08;102520.59;;;8.83;94.19
58622;BME280;44389;51.578;5.456;2023-04-19T01:12:34;102523.03;;;8.82;94.85
58622;BME280;44389;51.578;5.456;2023-04-19T01:14:59;102524.81;;;8.83;94.93
58622;BME280;44389;51.578;5.456;2023-04-19T01:17:25;102518.03;;;8.83;94.82
58622;BME280;44389;51.578;5.456;2023-04-19T01:19:58;102529.28;;;8.85;94.94
58622;BME280;44389;51.578;5.456;2023-04-19T01:22:23;102522.34;;;8.84;95.04
58622;BME280;44389;51.578;5.456;2023-04-19T01:24:49;102509.50;;;8.84;95.38
58622;BME280;44389;51.578;5.456;2023-04-19T01:27:15;102521.47;;;8.84;95.70
58622;BME280;44389;51.578;5.456;2023-04-19T01:29:42;102517.19;;;8.84;96.03
58622;BME280;44389;51.578;5.456;2023-04-19T01:32:07;102518.91;;;8.84;96.13
58622;BME280;44389;51.578;5.456;2023-04-19T01:34:32;102527.50;;;8.84;96.23
58622;BME280;44389;51.578;5.456;2023-04-19T01:36:57;102524.91;;;8.84;96.79
58622;BME280;44389;51.578;5.456;2023-04-19T01:39:24;102522.34;;;8.84;96.95
58622;BME280;44389;51.578;5.456;2023-04-19T01:41:50;102524.03;;;8.84;97.00
58622;BME280;44389;51.578;5.456;2023-04-19T01:44:15;102514.53;;;8.83;97.38
58622;BME280;44389;51.578;5.456;2023-04-19T01:46:40;102523.16;;;8.83;97.55
58622;BME280;44389;51.578;5.456;2023-04-19T01:49:07;102518.03;;;8.83;97.93
58622;BME280;44389;51.578;5.456;2023-04-19T01:51:32;102511.19;;;8.84;98.17
58622;BME280;44389;51.578;5.456;2023-04-19T01:53:57;102514.06;;;8.88;98.03
58622;BME280;44389;51.578;5.456;2023-04-19T01:56:23;102515.03;;;8.90;98.32
58622;BME280;44389;51.578;5.456;2023-04-19T01:58:48;102506.44;;;8.90;98.36
58622;BME280;44389;51.578;5.456;2023-04-19T02:01:13;102504.13;;;8.95;98.70
58622;BME280;44389;51.578;5.456;2023-04-19T02:03:39;102502.38;;;8.94;98.79
58622;BME280;44389;51.578;5.456;2023-04-19T02:06:04;102495.63;;;8.96;98.80
58622;BME280;44389;51.578;5.456;2023-04-19T02:08:29;102499.19;;;8.98;99.39
58622;BME280;44389;51.578;5.456;2023-04-19T02:10:55;102493.28;;;8.99;99.38
58622;BME280;44389;51.578;5.456;2023-04-19T02:13:20;102498.69;;;9.03;99.16
58622;BME280;44389;51.578;5.456;2023-04-19T02:15:46;102497.03;;;9.04;99.40
58622;BME280;44389;51.578;5.456;2023-04-19T02:18:11;102490.28;;;9.06;99.45
58622;BME280;44389;51.578;5.456;2023-04-19T02:20:37;102487.69;;;9.06;99.54
58622;BME280;44389;51.578;5.456;2023-04-19T02:23:02;102494.81;;;9.10;99.21
58622;BME280;44389;51.578;5.456;2023-04-19T02:25:28;102489.47;;;9.07;99.52
58622;BME280;44389;51.578;5.456;2023-04-19T02:27:53;102492.84;;;9.06;99.49
58622;BME280;44389;51.578;5.456;2023-04-19T02:30:19;102492.84;;;9.06;99.83
58622;BME280;44389;51.578;5.456;2023-04-19T02:32:47;102493.63;;;9.05;100.00
58622;BME280;44389;51.578;5.456;2023-04-19T02:35:12;102488.59;;;9.06;99.89
58622;BME280;44389;51.578;5.456;2023-04-19T02:37:37;102495.41;;;9.06;99.87
58622;BME280;44389;51.578;5.456;2023-04-19T02:40:03;102491.06;;;9.05;100.00
58622;BME280;44389;51.578;5.456;2023-04-19T02:42:29;102488.50;;;9.05;99.92
58622;BME280;44389;51.578;5.456;2023-04-19T02:44:54;102490.28;;;9.06;99.91
58622;BME280;44389;51.578;5.456;2023-04-19T02:47:20;102497.81;;;9.03;100.00
58622;BME280;44389;51.578;5.456;2023-04-19T02:49:45;102491.66;;;9.01;100.00
58622;BME280;44389;51.578;5.456;2023-04-19T02:52:11;102493.28;;;8.99;100.00
58622;BME280;44389;51.578;5.456;2023-04-19T02:54:36;102498.28;;;8.97;100.00
58622;BME280;44389;51.578;5.456;2023-04-19T02:57:01;102504.13;;;8.95;99.95
58622;BME280;44389;51.578;5.456;2023-04-19T02:59:27;102495.44;;;8.93;100.00
58622;BME280;44389;51.578;5.456;2023-04-19T03:01:52;102504.75;;;8.90;100.00
58622;BME280;44389;51.578;5.456;2023-04-19T03:04:17;102498.72;;;8.90;99.90
58622;BME280;44389;51.578;5.456;2023-04-19T03:06:42;102498.63;;;8.88;100.00
58622;BME280;44389;51.578;5.456;2023-04-19T03:09:08;102494.97;;;8.85;100.00
58622;BME280;44389;51.578;5.456;2023-04-19T03:11:34;102495.75;;;8.84;100.00
58622;BME280;44389;51.578;5.456;2023-04-19T03:14:01;102494.88;;;8.83;100.00
58622;BME280;44389;51.578;5.456;2023-04-19T03:16:26;102499.03;;;8.81;100.00
58622;BME280;44389;51.578;5.456;2023-04-19T03:18:51;102499.81;;;8.80;100.00
58622;BME280;44389;51.578;5.456;2023-04-19T03:21:16;102491.22;;;8.80;100.00
58622;BME280;44389;51.578;5.456;2023-04-19T03:23:42;102498.06;;;8.79;100.00
58622;BME280;44389;51.578;5.456;2023-04-19T03:26:07;102489.34;;;8.77;100.00
58622;BME280;44389;51.578;5.456;2023-04-19T03:28:33;102488.34;;;8.75;100.00
58622;BME280;44389;51.578;5.456;2023-04-19T03:30:59;102491.81;;;8.76;100.00
58622;BME280;44389;51.578;5.456;2023-04-19T03:33:24;102491.59;;;8.72;100.00
58622;BME280;44389;51.578;5.456;2023-04-19T03:35:50;102485.59;;;8.72;100.00
58622;BME280;44389;51.578;5.456;2023-04-19T03:38:15;102490.72;;;8.72;100.00
58622;BME280;44389;51.578;5.456;2023-04-19T03:40:41;102488.25;;;8.73;100.00
58622;BME280;44389;51.578;5.456;2023-04-19T03:43:06;102476.19;;;8.72;100.00
58622;BME280;44389;51.578;5.456;2023-04-19T03:45:31;102480.44;;;8.72;100.00
58622;BME280;44389;51.578;5.456;2023-04-19T03:47:57;102485.50;;;8.70;100.00
58622;BME280;44389;51.578;5.456;2023-04-19T03:50:22;102487.16;;;8.70;100.00
58622;BME280;44389;51.578;5.456;2023-04-19T03:52:47;102480.28;;;8.69;100.00
58622;BME280;44389;51.578;5.456;2023-04-19T03:55:13;102487.16;;;8.70;100.00
58622;BME280;44389;51.578;5.456;2023-04-19T03:57:38;102490.66;;;8.70;100.00
58622;BME280;44389;51.578;5.456;2023-04-19T04:00:04;102484.50;;;8.68;100.00
58622;BME280;44389;51.578;5.456;2023-04-19T04:02:36;102490.56;;;8.69;100.00
58622;BME280;44389;51.578;5.456;2023-04-19T04:05:01;102488.56;;;8.65;100.00
58622;BME280;44389;51.578;5.456;2023-04-19T04:07:26;102489.38;;;8.64;100.00
58622;BME280;44389;51.578;5.456;2023-04-19T04:09:52;102490.16;;;8.63;100.00
58622;BME280;44389;51.578;5.456;2023-04-19T04:12:17;102489.06;;;8.59;100.00
58622;BME280;44389;51.578;5.456;2023-04-19T04:14:42;102491.44;;;8.56;100.00
58622;BME280;44389;51.578;5.456;2023-04-19T04:17:07;102498.94;;;8.53;100.00
58622;BME280;44389;51.578;5.456;2023-04-19T04:19:33;102487.56;;;8.49;100.00
58622;BME280;44389;51.578;5.456;2023-04-19T04:21:58;102478.63;;;8.44;100.00
58622;BME280;44389;51.578;5.456;2023-04-19T04:24:23;102486.06;;;8.39;100.00
58622;BME280;44389;51.578;5.456;2023-04-19T04:26:50;102483.00;;;8.32;100.00
58622;BME280;44389;51.578;5.456;2023-04-19T04:29:16;102491.09;;;8.24;100.00
58622;BME280;44389;51.578;5.456;2023-04-19T04:31:41;102486.53;;;8.20;100.00
58622;BME280;44389;51.578;5.456;2023-04-19T04:34:06;102493.16;;;8.17;100.00
58622;BME280;44389;51.578;5.456;2023-04-19T04:36:33;102497.59;;;8.06;100.00
58622;BME280;44389;51.578;5.456;2023-04-19T04:39:00;102494.78;;;8.03;100.00
58622;BME280;44389;51.578;5.456;2023-04-19T04:41:26;102491.63;;;7.94;100.00
58622;BME280;44389;51.578;5.456;2023-04-19T04:43:52;102495.47;;;7.87;100.00
58622;BME280;44389;51.578;5.456;2023-04-19T04:46:17;102494.75;;;7.76;100.00
58622;BME280;44389;51.578;5.456;2023-04-19T04:48:43;102505.56;;;7.72;100.00
58622;BME280;44389;51.578;5.456;2023-04-19T04:51:08;102501.69;;;7.65;100.00
58622;BME280;44389;51.578;5.456;2023-04-19T04:53:33;102512.44;;;7.60;100.00
58622;BME280;44389;51.578;5.456;2023-04-19T04:55:59;102507.56;;;7.51;100.00
58622;BME280;44389;51.578;5.456;2023-04-19T04:58:24;102507.81;;;7.42;100.00
58622;BME280;44389;51.578;5.456;2023-04-19T05:00:49;102508.41;;;7.38;100.00
58622;BME280;44389;51.578;5.456;2023-04-19T05:03:14;102510.63;;;7.33;100.00
58622;BME280;44389;51.578;5.456;2023-04-19T05:05:40;102507.88;;;7.30;100.00
58622;BME280;44389;51.578;5.456;2023-04-19T05:08:05;102513.47;;;7.24;100.00
58622;BME280;44389;51.578;5.456;2023-04-19T05:10:31;102513.22;;;7.21;100.00
58622;BME280;44389;51.578;5.456;2023-04-19T05:12:56;102515.34;;;7.15;100.00
58622;BME280;44389;51.578;5.456;2023-04-19T05:15:21;102515.25;;;7.14;100.00
58622;BME280;44389;51.578;5.456;2023-04-19T05:17:47;102513.47;;;7.13;100.00
58622;BME280;44389;51.578;5.456;2023-04-19T05:20:12;102522.94;;;7.14;100.00
58622;BME280;44389;51.578;5.456;2023-04-19T05:22:38;102522.66;;;7.09;100.00
58622;BME280;44389;51.578;5.456;2023-04-19T05:25:04;102519.94;;;7.07;100.00
58622;BME280;44389;51.578;5.456;2023-04-19T05:27:29;102521.53;;;7.05;100.00
58622;BME280;44389;51.578;5.456;2023-04-19T05:29:54;102517.28;;;7.06;100.00
58622;BME280;44389;51.578;5.456;2023-04-19T05:32:20;102520.63;;;7.05;100.00
58622;BME280;44389;51.578;5.456;2023-04-19T05:34:45;102517.94;;;7.03;100.00
58622;BME280;44389;51.578;5.456;2023-04-19T05:37:10;102518.63;;;7.01;100.00
58622;BME280;44389;51.578;5.456;2023-04-19T05:39:35;102514.31;;;7.00;100.00
58622;BME280;44389;51.578;5.456;2023-04-19T05:42:01;102521.09;;;6.99;100.00
58622;BME280;44389;51.578;5.456;2023-04-19T05:44:26;102518.41;;;6.98;100.00
58622;BME280;44389;51.578;5.456;2023-04-19T05:46:51;102522.00;;;7.00;100.00
58622;BME280;44389;51.578;5.456;2023-04-19T05:49:17;102516.31;;;7.04;100.00
58622;BME280;44389;51.578;5.456;2023-04-19T05:51:42;102520.19;;;7.11;100.00
58622;BME280;44389;51.578;5.456;2023-04-19T05:54:07;102506.13;;;7.17;100.00
58622;BME280;44389;51.578;5.456;2023-04-19T05:56:36;102510.09;;;7.25;100.00
58622;BME280;44389;51.578;5.456;2023-04-19T05:59:02;102514.88;;;7.33;100.00
58622;BME280;44389;51.578;5.456;2023-04-19T06:01:27;102519.88;;;7.43;100.00
58622;BME280;44389;51.578;5.456;2023-04-19T06:03:52;102517.34;;;7.56;99.61
58622;BME280;44389;51.578;5.456;2023-04-19T06:06:21;102516.66;;;7.71;98.43
58622;BME280;44389;51.578;5.456;2023-04-19T06:08:47;102518.47;;;7.85;96.93
58622;BME280;44389;51.578;5.456;2023-04-19T06:11:13;102524.41;;;7.98;95.84
58622;BME280;44389;51.578;5.456;2023-04-19T06:13:38;102520.09;;;8.10;94.09
58622;BME280;44389;51.578;5.456;2023-04-19T06:16:04;102520.13;;;8.23;94.13
58622;BME280;44389;51.578;5.456;2023-04-19T06:18:29;102525.47;;;8.40;92.93
58622;BME280;44389;51.578;5.456;2023-04-19T06:20:55;102519.75;;;8.44;90.50
58622;BME280;44389;51.578;5.456;2023-04-19T06:23:20;102524.69;;;8.41;90.12
58622;BME280;44389;51.578;5.456;2023-04-19T06:25:46;102524.59;;;8.39;87.21
58622;BME280;44389;51.578;5.456;2023-04-19T06:28:14;102522.22;;;8.43;87.71
58622;BME280;44389;51.578;5.456;2023-04-19T06:30:39;102527.63;;;8.46;86.45
58622;BME280;44389;51.578;5.456;2023-04-19T06:33:05;102526.50;;;8.55;85.76
58622;BME280;44389;51.578;5.456;2023-04-19T06:35:31;102523.75;;;8.66;85.00
58622;BME280;44389;51.578;5.456;2023-04-19T06:37:56;102529.09;;;8.82;84.85
58622;BME280;44389;51.578;5.456;2023-04-19T06:40:21;102522.34;;;8.84;82.44
58622;BME280;44389;51.578;5.456;2023-04-19T06:42:47;102523.53;;;8.89;82.36
58622;BME280;44389;51.578;5.456;2023-04-19T06:45:12;102521.56;;;8.85;80.20
58622;BME280;44389;51.578;5.456;2023-04-19T06:47:39;102520.59;;;8.83;81.04
58622;BME280;44389;51.578;5.456;2023-04-19T06:50:05;102516.31;;;8.84;80.49
58622;BME280;44389;51.578;5.456;2023-04-19T06:52:30;102506.03;;;8.84;81.67
58622;BME280;44389;51.578;5.456;2023-04-19T06:54:55;102519.00;;;8.85;79.63
58622;BME280;44389;51.578;5.456;2023-04-19T06:57:21;102515.72;;;8.88;80.26
58622;BME280;44389;51.578;5.456;2023-04-19T06:59:46;102523.84;;;8.94;80.10
58622;BME280;44389;51.578;5.456;2023-04-19T07:02:11;102518.09;;;8.98;78.61
58622;BME280;44389;51.578;5.456;2023-04-19T07:04:37;102518.38;;;9.03;79.38
58622;BME280;44389;51.578;5.456;2023-04-19T07:07:02;102515.03;;;9.04;79.92
58622;BME280;44389;51.578;5.456;2023-04-19T07:09:28;102517.88;;;9.09;78.64
58622;BME280;44389;51.578;5.456;2023-04-19T07:11:53;102521.69;;;9.15;80.11
58622;BME280;44389;51.578;5.456;2023-04-19T07:14:19;102524.66;;;9.21;78.59
58622;BME280;44389;51.578;5.456;2023-04-19T07:16:45;102516.16;;;9.22;78.82
58622;BME280;44389;51.578;5.456;2023-04-19T07:19:11;102513.06;;;9.28;75.62
58622;BME280;44389;51.578;5.456;2023-04-19T07:21:36;102518.09;;;9.40;77.52
58622;BME280;44389;51.578;5.456;2023-04-19T07:24:03;102517.28;;;9.41;74.45
58622;BME280;44389;51.578;5.456;2023-04-19T07:26:30;102516.25;;;9.52;76.15
58622;BME280;44389;51.578;5.456;2023-04-19T07:28:55;102514.84;;;9.58;73.02
58622;BME280;44389;51.578;5.456;2023-04-19T07:31:21;102518.41;;;9.60;74.29
58622;BME280;44389;51.578;5.456;2023-04-19T07:33:46;102504.22;;;9.66;75.55
58622;BME280;44389;51.578;5.456;2023-04-19T07:36:11;102515.31;;;9.65;72.21
58622;BME280;44389;51.578;5.456;2023-04-19T07:38:37;102514.97;;;9.74;75.75
58622;BME280;44389;51.578;5.456;2023-04-19T07:41:02;102517.72;;;9.77;74.31
58622;BME280;44389;51.578;5.456;2023-04-19T07:43:29;102514.56;;;9.81;70.47
58622;BME280;44389;51.578;5.456;2023-04-19T07:45:54;102514.72;;;9.84;71.31
58622;BME280;44389;51.578;5.456;2023-04-19T07:48:20;102516.88;;;9.92;73.23
58622;BME280;44389;51.578;5.456;2023-04-19T07:50:45;102512.91;;;9.97;73.68
58622;BME280;44389;51.578;5.456;2023-04-19T07:53:11;102511.13;;;9.96;71.55
58622;BME280;44389;51.578;5.456;2023-04-19T07:55:36;102508.00;;;10.01;69.69
58622;BME280;44389;51.578;5.456;2023-04-19T07:58:01;102505.06;;;10.10;73.11
58622;BME280;44389;51.578;5.456;2023-04-19T08:00:27;102502.50;;;10.10;69.35
58622;BME280;44389;51.578;5.456;2023-04-19T08:02:54;102507.31;;;10.19;69.90
58622;BME280;44389;51.578;5.456;2023-04-19T08:05:22;102500.00;;;10.27;69.34
58622;BME280;44389;51.578;5.456;2023-04-19T08:07:47;102503.75;;;10.32;67.91
58622;BME280;44389;51.578;5.456;2023-04-19T08:10:13;102513.03;;;10.43;69.26
58622;BME280;44389;51.578;5.456;2023-04-19T08:12:39;102502.00;;;10.46;63.73
58622;BME280;44389;51.578;5.456;2023-04-19T08:15:06;102507.31;;;10.49;63.96
58622;BME280;44389;51.578;5.456;2023-04-19T08:17:32;102508.25;;;10.66;70.56
58622;BME280;44389;51.578;5.456;2023-04-19T08:19:57;102503.59;;;10.75;63.53
58622;BME280;44389;51.578;5.456;2023-04-19T08:22:23;102499.56;;;10.95;66.12
58622;BME280;44389;51.578;5.456;2023-04-19T08:24:49;102504.94;;;11.00;60.92
58622;BME280;44389;51.578;5.456;2023-04-19T08:27:16;102487.63;;;11.14;65.49
58622;BME280;44389;51.578;5.456;2023-04-19T08:29:41;102497.31;;;11.18;64.13
58622;BME280;44389;51.578;5.456;2023-04-19T08:32:06;102500.16;;;11.23;60.36
58622;BME280;44389;51.578;5.456;2023-04-19T08:34:35;102499.44;;;11.25;58.02
58622;BME280;44389;51.578;5.456;2023-04-19T08:37:02;102501.75;;;11.37;58.71
58622;BME280;44389;51.578;5.456;2023-04-19T08:39:28;102501.44;;;11.47;56.53
58622;BME280;44389;51.578;5.456;2023-04-19T08:41:54;102509.03;;;11.44;53.31
58622;BME280;44389;51.578;5.456;2023-04-19T08:44:22;102498.72;;;11.44;54.02
58622;BME280;44389;51.578;5.456;2023-04-19T08:46:48;102498.31;;;11.53;54.30
58622;BME280;44389;51.578;5.456;2023-04-19T08:49:15;102498.22;;;11.51;54.68
58622;BME280;44389;51.578;5.456;2023-04-19T08:51:40;102494.34;;;11.60;53.22
58622;BME280;44389;51.578;5.456;2023-04-19T08:54:07;102490.38;;;11.66;52.21
58622;BME280;44389;51.578;5.456;2023-04-19T08:56:33;102493.69;;;11.80;53.28
58622;BME280;44389;51.578;5.456;2023-04-19T08:58:58;102500.63;;;11.81;50.63
58622;BME280;44389;51.578;5.456;2023-04-19T09:01:24;102481.09;;;11.86;50.06
58622;BME280;44389;51.578;5.456;2023-04-19T09:03:49;102487.63;;;11.96;50.32
58622;BME280;44389;51.578;5.456;2023-04-19T09:06:15;102496.81;;;12.26;52.07
58622;BME280;44389;51.578;5.456;2023-04-19T09:08:41;102490.69;;;12.24;49.84
58622;BME280;44389;51.578;5.456;2023-04-19T09:11:07;102495.03;;;12.25;51.47
58622;BME280;44389;51.578;5.456;2023-04-19T09:13:32;102488.41;;;12.30;52.75
58622;BME280;44389;51.578;5.456;2023-04-19T09:16:00;102487.38;;;12.44;50.96
58622;BME280;44389;51.578;5.456;2023-04-19T09:18:26;102491.38;;;12.38;48.88
58622;BME280;44389;51.578;5.456;2023-04-19T09:20:51;102488.72;;;12.54;50.75
58622;BME280;44389;51.578;5.456;2023-04-19T09:23:22;102486.19;;;12.56;48.54
58622;BME280;44389;51.578;5.456;2023-04-19T09:25:54;102490.19;;;12.67;46.80
58622;BME280;44389;51.578;5.456;2023-04-19T09:28:21;102495.94;;;12.61;44.57
58622;BME280;44389;51.578;5.456;2023-04-19T09:30:47;102495.78;;;12.58;44.11
58622;BME280;44389;51.578;5.456;2023-04-19T09:33:13;102492.84;;;12.68;45.88
58622;BME280;44389;51.578;5.456;2023-04-19T09:35:47;102493.63;;;12.85;46.62
58622;BME280;44389;51.578;5.456;2023-04-19T09:38:14;102494.03;;;12.95;45.48
58622;BME280;44389;51.578;5.456;2023-04-19T09:40:40;102495.66;;;13.11;47.54
58622;BME280;44389;51.578;5.456;2023-04-19T09:43:07;102488.47;;;13.05;48.11
58622;BME280;44389;51.578;5.456;2023-04-19T09:45:42;102496.00;;;13.18;45.50
58622;BME280;44389;51.578;5.456;2023-04-19T09:48:09;102484.38;;;13.48;44.44
58622;BME280;44389;51.578;5.456;2023-04-19T09:50:49;102475.38;;;13.40;43.87
58622;BME280;44389;51.578;5.456;2023-04-19T09:53:16;102479.47;;;13.95;45.89
58622;BME280;44389;51.578;5.456;2023-04-19T09:55:41;102481.88;;;14.11;45.98
58622;BME280;44389;51.578;5.456;2023-04-19T09:58:08;102464.81;;;14.60;44.46
58622;BME280;44389;51.578;5.456;2023-04-19T10:00:34;102477.41;;;15.19;45.52
58622;BME280;44389;51.578;5.456;2023-04-19T10:03:00;102474.41;;;15.57;40.61
58622;BME280;44389;51.578;5.456;2023-04-19T10:05:25;102477.38;;;16.45;41.59
58622;BME280;44389;51.578;5.456;2023-04-19T10:07:51;102474.06;;;16.51;38.74
58622;BME280;44389;51.578;5.456;2023-04-19T10:10:17;102477.09;;;16.65;38.04
58622;BME280;44389;51.578;5.456;2023-04-19T10:12:47;102469.88;;;16.85;36.54
58622;BME280;44389;51.578;5.456;2023-04-19T10:15:13;102470.56;;;16.79;34.10
58622;BME280;44389;51.578;5.456;2023-04-19T10:17:39;102472.16;;;17.33;35.61
58622;BME280;44389;51.578;5.456;2023-04-19T10:20:08;102473.28;;;17.76;32.45
58622;BME280;44389;51.578;5.456;2023-04-19T10:22:35;102474.94;;;17.39;31.76
58622;BME280;44389;51.578;5.456;2023-04-19T10:25:14;102479.56;;;18.17;31.00
58622;BME280;44389;51.578;5.456;2023-04-19T10:27:41;102475.66;;;17.99;28.37
58622;BME280;44389;51.578;5.456;2023-04-19T10:30:21;102475.91;;;18.47;29.56
58622;BME280;44389;51.578;5.456;2023-04-19T10:32:57;102466.03;;;18.73;29.55
58622;BME280;44389;51.578;5.456;2023-04-19T10:35:32;102475.00;;;18.86;28.34
58622;BME280;44389;51.578;5.456;2023-04-19T10:38:34;102464.31;;;19.62;31.29
58622;BME280;44389;51.578;5.456;2023-04-19T10:41:00;102460.16;;;19.26;26.12
58622;BME280;44389;51.578;5.456;2023-04-19T10:43:29;102463.53;;;19.19;28.78
58622;BME280;44389;51.578;5.456;2023-04-19T10:48:56;102470.28;;;19.07;27.05
58622;BME280;44389;51.578;5.456;2023-04-19T10:51:25;102470.03;;;19.39;26.20
58622;BME280;44389;51.578;5.456;2023-04-19T10:53:55;102468.31;;;19.43;27.30
58622;BME280;44389;51.578;5.456;2023-04-19T10:56:57;102453.19;;;19.74;28.12
58622;BME280;44389;51.578;5.456;2023-04-19T10:59:24;102446.91;;;19.63;26.07
58622;BME280;44389;51.578;5.456;2023-04-19T11:01:54;102458.94;;;20.03;25.83
58622;BME280;44389;51.578;5.456;2023-04-19T11:07:14;102460.22;;;20.29;26.14
58622;BME280;44389;51.578;5.456;2023-04-19T11:09:46;102447.63;;;20.04;24.77
58622;BME280;44389;51.578;5.456;2023-04-19T11:12:14;102449.28;;;19.50;25.67
58622;BME280;44389;51.578;5.456;2023-04-19T11:17:20;102455.41;;;19.51;27.04
58622;BME280;44389;51.578;5.456;2023-04-19T11:20:08;102450.41;;;19.63;27.28
58622;BME280;44389;51.578;5.456;2023-04-19T11:22:42;102450.53;;;19.23;28.39
58622;BME280;44389;51.578;5.456;2023-04-19T11:27:36;102442.78;;;19.28;27.02
58622;BME280;44389;51.578;5.456;2023-04-19T11:30:09;102435.03;;;19.82;27.54
58622;BME280;44389;51.578;5.456;2023-04-19T11:32:35;102431.25;;;20.18;27.68
58622;BME280;44389;51.578;5.456;2023-04-19T11:35:06;102431.50;;;19.80;28.10
58622;BME280;44389;51.578;5.456;2023-04-19T11:37:33;102427.03;;;19.74;27.49
58622;BME280;44389;51.578;5.456;2023-04-19T11:39:58;102429.19;;;19.48;28.36
58622;BME280;44389;51.578;5.456;2023-04-19T11:42:24;102418.81;;;19.03;27.63
58622;BME280;44389;51.578;5.456;2023-04-19T11:44:50;102416.22;;;18.64;28.75
58622;BME280;44389;51.578;5.456;2023-04-19T11:47:16;102415.53;;;19.14;30.20
58622;BME280;44389;51.578;5.456;2023-04-19T11:49:42;102404.53;;;19.33;27.89
58622;BME280;44389;51.578;5.456;2023-04-19T11:52:07;102405.56;;;20.55;26.11
58622;BME280;44389;51.578;5.456;2023-04-19T11:54:32;102402.94;;;20.52;26.46
58622;BME280;44389;51.578;5.456;2023-04-19T11:59:23;102391.66;;;21.37;23.97
58622;BME280;44389;51.578;5.456;2023-04-19T12:01:48;102380.88;;;22.07;22.66
58622;BME280;44389;51.578;5.456;2023-04-19T12:04:13;102375.13;;;21.46;21.85
58622;BME280;44389;51.578;5.456;2023-04-19T12:06:39;102377.13;;;21.70;22.10
58622;BME280;44389;51.578;5.456;2023-04-19T12:09:06;102383.72;;;21.28;22.38
58622;BME280;44389;51.578;5.456;2023-04-19T12:11:45;102381.13;;;21.31;23.53
58622;BME280;44389;51.578;5.456;2023-04-19T12:14:11;102374.72;;;22.08;26.07
58622;BME280;44389;51.578;5.456;2023-04-19T12:16:37;102373.81;;;21.99;23.01
58622;BME280;44389;51.578;5.456;2023-04-19T12:19:17;102376.59;;;22.27;23.13
58622;BME280;44389;51.578;5.456;2023-04-19T12:21:45;102376.72;;;22.43;21.02
58622;BME280;44389;51.578;5.456;2023-04-19T12:24:13;102372.22;;;22.28;21.12
58622;BME280;44389;51.578;5.456;2023-04-19T12:26:52;102364.25;;;22.11;22.03
58622;BME280;44389;51.578;5.456;2023-04-19T12:29:18;102361.78;;;22.37;21.13
58622;BME280;44389;51.578;5.456;2023-04-19T12:31:43;102358.22;;;22.30;21.78
58622;BME280;44389;51.578;5.456;2023-04-19T12:34:08;102353.97;;;22.51;21.08
58622;BME280;44389;51.578;5.456;2023-04-19T12:36:33;102363.44;;;22.26;21.13
58622;BME280;44389;51.578;5.456;2023-04-19T12:38:59;102359.84;;;22.03;21.45
58622;BME280;44389;51.578;5.456;2023-04-19T12:41:24;102370.19;;;21.82;22.99
58622;BME280;44389;51.578;5.456;2023-04-19T12:43:49;102364.13;;;20.91;22.46
58622;BME280;44389;51.578;5.456;2023-04-19T12:46:15;102352.97;;;21.15;22.47
58622;BME280;44389;51.578;5.456;2023-04-19T12:48:40;102354.59;;;21.00;23.54
58622;BME280;44389;51.578;5.456;2023-04-19T12:51:05;102346.81;;;21.08;21.79
58622;BME280;44389;51.578;5.456;2023-04-19T12:53:31;102349.75;;;21.44;20.76
58622;BME280;44389;51.578;5.456;2023-04-19T12:55:56;102331.94;;;22.23;21.57
58622;BME280;44389;51.578;5.456;2023-04-19T12:58:21;102341.44;;;22.00;21.03
58622;BME280;44389;51.578;5.456;2023-04-19T13:00:48;102329.09;;;21.81;20.47
58622;BME280;44389;51.578;5.456;2023-04-19T13:03:13;102323.84;;;21.81;20.74